createdAt,value
2018-03-16T00:01:15.854Z,31.93
2018-03-16T00:03:43.460Z,35.90
2018-03-16T00:06:11.846Z,34.00
2018-03-16T00:08:40.971Z,33.30
2018-03-16T00:11:08.623Z,30.83
2018-03-16T00:13:36.210Z,32.00
2018-03-16T00:16:03.822Z,34.07
2018-03-16T00:18:32.337Z,33.50
2018-03-16T00:21:00.002Z,32.67
2018-03-16T00:23:27.626Z,32.77
2018-03-16T00:25:56.030Z,34.87
2018-03-16T00:28:23.693Z,33.23
2018-03-16T00:30:51.283Z,32.90
2018-03-16T00:33:18.926Z,32.67
2018-03-16T00:35:46.518Z,34.53
2018-03-16T00:38:14.150Z,31.23
2018-03-16T00:40:41.750Z,35.20
2018-03-16T00:43:09.371Z,29.10
2018-03-16T00:45:37.064Z,31.00
2018-03-16T00:48:05.451Z,28.53
2018-03-16T00:50:34.601Z,33.17
2018-03-16T00:53:02.223Z,32.53
2018-03-16T00:55:30.618Z,31.57
2018-03-16T00:57:58.689Z,31.27
2018-03-16T01:00:26.354Z,31.33
2018-03-16T01:02:54.184Z,31.40
2018-03-16T01:05:21.807Z,28.93
2018-03-16T01:07:49.463Z,29.23
2018-03-16T01:10:17.660Z,30.43
2018-03-16T01:12:45.282Z,32.93
2018-03-16T01:15:13.516Z,33.93
2018-03-16T01:17:41.977Z,32.60
2018-03-16T01:20:10.388Z,31.20
2018-03-16T01:22:38.006Z,29.33
2018-03-16T01:25:05.657Z,29.07
2018-03-16T01:27:33.253Z,30.20
2018-03-16T01:30:01.627Z,27.93
2018-03-16T01:32:30.042Z,26.63
2018-03-16T01:34:57.662Z,24.40
2018-03-16T01:37:25.246Z,24.97
2018-03-16T01:39:52.907Z,21.40
2018-03-16T01:42:20.630Z,22.50
2018-03-16T01:44:48.240Z,22.33
2018-03-16T01:47:15.835Z,21.90
2018-03-16T01:49:43.570Z,21.03
2018-03-16T01:52:11.226Z,20.43
2018-03-16T01:54:38.850Z,19.67
2018-03-16T01:57:07.238Z,22.10
2018-03-16T01:59:35.670Z,18.57
2018-03-16T02:02:03.300Z,18.23
2018-03-16T02:04:30.914Z,18.47
2018-03-16T02:06:58.561Z,18.03
2018-03-16T02:09:26.210Z,17.67
2018-03-16T02:11:53.870Z,17.37
2018-03-16T02:14:21.485Z,16.30
2018-03-16T02:16:49.894Z,15.67
2018-03-16T02:19:17.535Z,16.20
2018-03-16T02:21:45.905Z,15.03
2018-03-16T02:24:14.282Z,17.23
2018-03-16T02:26:42.677Z,15.37
2018-03-16T02:29:10.300Z,15.03
2018-03-16T02:31:38.686Z,14.67
2018-03-16T02:34:07.092Z,17.17
2018-03-16T02:36:34.725Z,14.53
2018-03-16T02:39:03.086Z,16.13
2018-03-16T02:41:30.717Z,14.83
2018-03-16T02:43:58.333Z,19.40
2018-03-16T02:46:26.691Z,16.17
2018-03-16T02:48:54.299Z,15.67
2018-03-16T02:51:21.900Z,16.10
2018-03-16T02:53:49.522Z,18.13
2018-03-16T02:56:17.150Z,16.07
2018-03-16T02:58:45.509Z,15.40
2018-03-16T03:01:13.965Z,16.07
2018-03-16T03:03:41.566Z,20.53
2018-03-16T03:06:09.953Z,17.40
2018-03-16T03:08:37.674Z,17.83
2018-03-16T03:11:06.014Z,17.03
2018-03-16T03:13:34.235Z,20.03
2018-03-16T03:16:02.117Z,17.53
2018-03-16T03:18:30.495Z,19.20
2018-03-16T03:20:58.857Z,19.70
2018-03-16T03:23:26.504Z,21.47
2018-03-16T03:25:54.119Z,19.63
2018-03-16T03:28:21.802Z,20.27
2018-03-16T03:30:49.418Z,18.07
2018-03-16T03:33:17.794Z,19.90
2018-03-16T03:35:47.016Z,19.30
2018-03-16T03:38:14.622Z,18.33
2018-03-16T03:40:42.243Z,17.70
2018-03-16T03:43:09.835Z,19.93
2018-03-16T03:45:37.483Z,19.90
2018-03-16T03:48:05.094Z,21.60
2018-03-16T03:50:33.494Z,21.63
2018-03-16T03:53:01.164Z,19.97
2018-03-16T03:55:28.794Z,18.93
2018-03-16T03:57:57.201Z,17.90
2018-03-16T04:00:25.524Z,20.37
2018-03-16T04:02:53.267Z,19.93
2018-03-16T04:05:20.879Z,18.53
2018-03-16T04:07:48.475Z,20.03
2018-03-16T04:10:16.132Z,18.93
2018-03-16T04:12:43.796Z,17.77
2018-03-16T04:15:11.427Z,18.97
2018-03-16T04:17:39.025Z,18.07
2018-03-16T04:20:06.700Z,19.27
2018-03-16T04:22:34.341Z,21.63
2018-03-16T04:25:01.934Z,17.77
2018-03-16T04:27:30.356Z,19.90
2018-03-16T04:29:57.948Z,18.70
2018-03-16T04:32:25.534Z,20.17
2018-03-16T04:34:53.199Z,19.97
2018-03-16T04:37:20.861Z,18.40
2018-03-16T04:39:49.227Z,19.50
2018-03-16T04:42:16.843Z,20.63
2018-03-16T04:44:44.523Z,20.20
2018-03-16T04:47:12.224Z,18.33
2018-03-16T04:49:40.648Z,18.60
2018-03-16T04:52:08.330Z,19.90
2018-03-16T04:54:35.921Z,17.70
2018-03-16T04:57:04.314Z,19.17
2018-03-16T04:59:32.693Z,18.63
2018-03-16T05:02:00.314Z,18.47
2018-03-16T05:04:27.958Z,18.33
2018-03-16T05:06:55.563Z,22.27
2018-03-16T05:09:23.940Z,18.40
2018-03-16T05:11:51.618Z,19.73
2018-03-16T05:14:19.217Z,20.03
2018-03-16T05:16:46.822Z,19.40
2018-03-16T05:19:15.232Z,20.53
2018-03-16T05:21:42.821Z,20.00
2018-03-16T05:24:10.470Z,19.23
2018-03-16T05:26:39.267Z,17.87
2018-03-16T05:29:07.004Z,17.80
2018-03-16T05:31:34.611Z,18.80
2018-03-16T05:34:02.279Z,20.70
2018-03-16T05:36:29.916Z,18.67
2018-03-16T05:38:57.525Z,20.67
2018-03-16T05:41:25.143Z,18.40
2018-03-16T05:43:52.749Z,19.43
2018-03-16T05:46:20.387Z,22.50
2018-03-16T05:48:47.974Z,17.63
2018-03-16T05:51:15.601Z,17.63
2018-03-16T05:53:43.227Z,19.80
2018-03-16T05:56:10.831Z,18.73
2018-03-16T05:58:39.236Z,18.83
2018-03-16T06:01:06.865Z,15.87
2018-03-16T06:03:35.226Z,19.13
2018-03-16T06:06:03.573Z,17.07
2018-03-16T06:08:31.189Z,18.07
2018-03-16T06:10:59.547Z,16.67
2018-03-16T06:13:27.210Z,16.07
2018-03-16T06:15:54.810Z,16.93
2018-03-16T06:18:23.062Z,17.23
2018-03-16T06:20:51.473Z,19.23
2018-03-16T06:23:19.073Z,19.00
2018-03-16T06:25:46.687Z,15.57
2018-03-16T06:28:14.369Z,16.83
2018-03-16T06:30:42.733Z,17.10
2018-03-16T06:33:10.352Z,20.83
2018-03-16T06:35:37.958Z,16.23
2018-03-16T06:38:05.600Z,15.40
2018-03-16T06:40:33.249Z,16.23
2018-03-16T06:43:00.847Z,13.87
2018-03-16T06:45:28.448Z,16.77
2018-03-16T06:47:56.854Z,13.47
2018-03-16T06:50:24.443Z,15.20
2018-03-16T06:52:52.051Z,15.67
2018-03-16T06:55:20.460Z,17.90
2018-03-16T06:57:48.700Z,14.23
2018-03-16T07:00:16.445Z,14.70
2018-03-16T07:02:44.096Z,14.60
2018-03-16T07:05:11.747Z,19.07
2018-03-16T07:07:39.404Z,22.67
2018-03-16T07:10:08.094Z,16.93
2018-03-16T07:12:35.741Z,20.00
2018-03-16T07:18:07.341Z,14.77
2018-03-16T07:20:35.070Z,12.27
2018-03-16T07:23:02.952Z,15.40
2018-03-16T07:25:30.621Z,13.70
2018-03-16T07:27:58.271Z,14.73
2018-03-16T07:30:25.921Z,14.20
2018-03-16T07:32:53.555Z,11.53
2018-03-16T07:35:22.757Z,12.90
2018-03-16T07:37:50.419Z,15.37
2018-03-16T07:40:18.007Z,12.67
2018-03-16T07:42:45.588Z,12.20
2018-03-16T07:45:13.252Z,11.57
2018-03-16T07:47:42.425Z,13.07
2018-03-16T07:50:10.016Z,11.33
2018-03-16T07:52:37.653Z,12.43
2018-03-16T07:55:05.239Z,15.80
2018-03-16T07:57:32.871Z,14.17
2018-03-16T08:00:00.506Z,13.03
2018-03-16T08:02:28.102Z,13.57
2018-03-16T08:04:56.552Z,11.43
2018-03-16T08:07:24.205Z,13.27
2018-03-16T08:09:52.546Z,11.40
2018-03-16T08:12:20.928Z,13.83
2018-03-16T08:14:49.297Z,13.47
2018-03-16T08:17:17.172Z,10.97
2018-03-16T08:19:45.534Z,10.00
2018-03-16T08:22:13.973Z,11.30
2018-03-16T08:24:41.559Z,9.83
2018-03-16T08:27:09.167Z,10.60
2018-03-16T08:29:37.538Z,15.13
2018-03-16T08:32:05.912Z,10.47
2018-03-16T08:34:34.336Z,10.43
2018-03-16T08:37:01.987Z,11.47
2018-03-16T08:39:29.704Z,13.20
2018-03-16T08:41:58.136Z,11.83
2018-03-16T08:44:25.717Z,10.53
2018-03-16T08:46:53.315Z,11.80
2018-03-16T08:49:21.702Z,12.60
2018-03-16T08:51:49.333Z,11.70
2018-03-16T08:54:16.954Z,9.33
2018-03-16T08:56:44.572Z,11.77
2018-03-16T08:59:12.989Z,12.93
2018-03-16T09:01:40.578Z,11.43
2018-03-16T09:04:08.986Z,12.80
2018-03-16T09:06:37.389Z,12.97
2018-03-16T09:09:05.997Z,12.20
2018-03-16T09:11:33.600Z,13.53
2018-03-16T09:14:01.977Z,12.07
2018-03-16T09:16:30.365Z,12.27
2018-03-16T09:18:59.576Z,9.67
2018-03-16T09:21:27.230Z,11.60
2018-03-16T09:23:56.076Z,11.90
2018-03-16T09:26:24.538Z,14.07
2018-03-16T09:28:53.513Z,10.80
2018-03-16T09:31:21.138Z,11.83
2018-03-16T09:33:49.536Z,12.30
2018-03-16T09:36:17.223Z,12.93
2018-03-16T09:38:44.894Z,10.40
2018-03-16T09:41:12.526Z,10.83
2018-03-16T09:43:40.476Z,11.20
2018-03-16T09:46:08.158Z,12.60
2018-03-16T09:48:37.468Z,12.50
2018-03-16T09:51:05.238Z,10.97
2018-03-16T09:53:33.548Z,10.50
2018-03-16T09:56:03.601Z,14.47
2018-03-16T09:58:31.534Z,10.17
2018-03-16T10:00:59.162Z,11.30
2018-03-16T10:03:26.793Z,11.37
2018-03-16T10:05:54.386Z,11.37
2018-03-16T10:08:21.982Z,11.60
2018-03-16T10:10:49.662Z,10.17
2018-03-16T10:13:18.040Z,10.80
2018-03-16T10:15:46.402Z,12.77
2018-03-16T10:18:14.798Z,10.23
2018-03-16T10:20:42.437Z,11.27
2018-03-16T10:23:10.048Z,13.90
2018-03-16T10:25:37.663Z,11.37
2018-03-16T10:28:25.813Z,11.87
2018-03-16T10:30:54.180Z,11.50
2018-03-16T10:33:22.566Z,10.30
2018-03-16T10:35:50.918Z,11.33
2018-03-16T10:38:18.502Z,10.37
2018-03-16T10:40:46.950Z,10.93
2018-03-16T10:43:14.650Z,10.37
2018-03-16T10:45:42.205Z,10.13
2018-03-16T10:48:09.830Z,10.77
2018-03-16T10:50:37.475Z,11.53
2018-03-16T10:53:05.062Z,9.07
2018-03-16T10:55:32.669Z,10.17
2018-03-16T10:58:00.311Z,11.83
2018-03-16T11:00:33.582Z,12.23
2018-03-16T11:03:06.825Z,11.63
2018-03-16T11:08:33.414Z,10.83
2018-03-16T11:11:01.019Z,10.37
2018-03-16T11:13:28.674Z,10.63
2018-03-16T11:15:56.264Z,14.07
2018-03-16T11:18:23.846Z,12.50
2018-03-16T11:20:51.669Z,13.13
2018-03-16T11:23:19.257Z,14.00
2018-03-16T11:25:46.834Z,11.07
2018-03-16T11:28:14.476Z,12.53
2018-03-16T11:30:42.057Z,12.20
2018-03-16T11:33:09.696Z,13.37
2018-03-16T11:35:37.278Z,11.33
2018-03-16T11:38:05.513Z,12.20
2018-03-16T11:40:33.295Z,12.37
2018-03-16T11:43:00.882Z,13.70
2018-03-16T11:45:28.491Z,13.17
2018-03-16T11:47:56.118Z,15.27
2018-03-16T11:50:24.481Z,14.00
2018-03-16T11:52:52.087Z,13.57
2018-03-16T11:55:19.698Z,11.97
2018-03-16T11:57:47.555Z,16.20
2018-03-16T12:00:15.181Z,14.90
2018-03-16T12:02:42.766Z,13.90
2018-03-16T12:05:10.401Z,14.83
2018-03-16T12:07:38.435Z,14.53
2018-03-16T12:10:06.848Z,14.90
2018-03-16T12:12:34.582Z,13.80
2018-03-16T12:15:02.189Z,17.60
2018-03-16T12:17:29.838Z,14.87
2018-03-16T12:19:57.549Z,15.07
2018-03-16T12:22:25.907Z,13.63
2018-03-16T12:24:53.499Z,16.67
2018-03-16T12:27:21.133Z,14.83
2018-03-16T12:29:48.722Z,16.47
2018-03-16T12:32:17.135Z,14.53
2018-03-16T12:34:44.724Z,16.90
2018-03-16T12:37:12.363Z,12.93
2018-03-16T12:39:39.950Z,14.63
2018-03-16T12:42:08.350Z,12.90
2018-03-16T12:44:36.750Z,14.50
2018-03-16T12:47:04.490Z,14.10
2018-03-16T12:49:32.887Z,15.20
2018-03-16T12:52:01.263Z,18.03
2018-03-16T12:54:28.903Z,16.97
2018-03-16T12:56:57.271Z,13.53
2018-03-16T12:59:24.940Z,13.70
2018-03-16T13:01:53.338Z,13.10
2018-03-16T13:04:21.185Z,14.67
2018-03-16T13:06:49.582Z,13.63
2018-03-16T13:09:17.218Z,13.57
2018-03-16T13:11:45.599Z,11.70
2018-03-16T13:14:13.993Z,14.10
2018-03-16T13:16:42.949Z,11.47
2018-03-16T13:19:10.611Z,11.43
2018-03-16T13:21:38.222Z,11.57
2018-03-16T13:24:05.901Z,12.47
2018-03-16T13:26:33.526Z,10.30
2018-03-16T13:29:01.110Z,11.50
2018-03-16T13:31:28.712Z,13.20
2018-03-16T13:33:57.122Z,13.17
2018-03-16T13:36:25.491Z,12.43
2018-03-16T13:38:53.920Z,13.13
2018-03-16T13:41:21.513Z,11.43
2018-03-16T13:43:49.898Z,12.47
2018-03-16T13:46:18.340Z,14.33
2018-03-16T13:48:46.629Z,12.33
2018-03-16T13:51:14.257Z,12.63
2018-03-16T13:53:42.482Z,13.13
2018-03-16T13:56:10.141Z,11.67
2018-03-16T13:58:38.351Z,10.63
2018-03-16T14:01:05.927Z,10.53
2018-03-16T14:03:33.571Z,12.23
2018-03-16T14:06:01.164Z,13.60
2018-03-16T14:08:29.017Z,10.43
2018-03-16T14:10:56.610Z,11.17
2018-03-16T14:13:24.333Z,12.23
2018-03-16T14:15:51.987Z,9.57
2018-03-16T14:18:19.622Z,10.47
2018-03-16T14:20:48.018Z,8.93
2018-03-16T14:23:15.664Z,9.27
2018-03-16T14:25:44.099Z,12.30
2018-03-16T14:28:11.694Z,12.27
2018-03-16T14:30:39.322Z,11.53
2018-03-16T14:33:06.990Z,14.00
2018-03-16T14:35:34.579Z,11.97
2018-03-16T14:38:02.971Z,11.80
2018-03-16T14:40:30.556Z,10.17
2018-03-16T14:42:58.142Z,12.13
2018-03-16T14:45:25.767Z,10.17
2018-03-16T14:47:53.437Z,10.40
2018-03-16T14:50:21.101Z,10.93
2018-03-16T14:52:48.742Z,13.13
2018-03-16T14:55:16.358Z,12.03
2018-03-16T14:57:43.958Z,10.93
2018-03-16T15:00:11.780Z,11.77
2018-03-16T15:02:39.482Z,10.20
2018-03-16T15:05:07.071Z,11.07
2018-03-16T15:07:34.704Z,14.37
2018-03-16T15:10:02.306Z,11.43
2018-03-16T15:12:29.957Z,10.37
2018-03-16T15:14:57.594Z,10.87
2018-03-16T15:17:25.216Z,11.30
2018-03-16T15:19:53.633Z,9.47
2018-03-16T15:22:21.237Z,11.83
2018-03-16T15:24:48.856Z,9.07
2018-03-16T15:27:16.536Z,10.43
2018-03-16T15:29:44.136Z,9.87
2018-03-16T15:32:11.783Z,11.93
2018-03-16T15:34:40.146Z,9.20
2018-03-16T15:37:07.742Z,8.83
2018-03-16T15:39:35.378Z,9.23
2018-03-16T15:42:03.778Z,8.47
2018-03-16T15:44:32.145Z,8.67
2018-03-16T15:46:59.735Z,7.67
2018-03-16T15:49:27.346Z,9.67
2018-03-16T15:51:54.942Z,8.30
2018-03-16T15:54:22.585Z,9.50
2018-03-16T15:56:50.994Z,13.43
2018-03-16T15:59:19.326Z,8.20
2018-03-16T16:01:46.960Z,8.20
2018-03-16T16:04:14.626Z,6.50
2018-03-16T16:06:42.237Z,9.80
2018-03-16T16:09:10.582Z,7.80
2018-03-16T16:11:38.219Z,10.40
2018-03-16T16:14:05.823Z,8.30
2018-03-16T16:16:34.219Z,9.57
2018-03-16T16:19:01.857Z,7.60
2018-03-16T16:21:30.237Z,7.53
2018-03-16T16:23:58.588Z,9.00
2018-03-16T16:26:27.990Z,7.93
2018-03-16T16:28:55.644Z,7.40
2018-03-16T16:31:23.238Z,8.50
2018-03-16T16:33:51.662Z,9.57
2018-03-16T16:36:20.018Z,7.93
2018-03-16T16:38:47.623Z,6.20
2018-03-16T16:41:15.209Z,8.60
2018-03-16T16:43:43.618Z,7.40
2018-03-16T16:46:11.261Z,9.70
2018-03-16T16:48:39.638Z,7.90
2018-03-16T16:51:07.986Z,8.73
2018-03-16T16:53:35.605Z,7.97
2018-03-16T16:56:03.199Z,8.53
2018-03-16T16:58:31.405Z,6.50
2018-03-16T17:01:00.019Z,8.73
2018-03-16T17:03:27.628Z,10.13
2018-03-16T17:05:55.242Z,8.33
2018-03-16T17:08:22.868Z,6.50
2018-03-16T17:10:51.259Z,6.63
2018-03-16T17:13:18.854Z,6.63
2018-03-16T17:15:46.471Z,6.37
2018-03-16T17:18:14.878Z,6.43
2018-03-16T17:20:42.494Z,7.13
2018-03-16T17:23:10.879Z,9.80
2018-03-16T17:25:39.303Z,7.27
2018-03-16T17:28:06.929Z,6.67
2018-03-16T17:30:35.275Z,8.03
2018-03-16T17:33:02.905Z,6.20
2018-03-16T17:35:30.561Z,6.83
2018-03-16T17:37:58.225Z,6.17
2018-03-16T17:40:25.837Z,7.40
2018-03-16T17:42:54.246Z,6.07
2018-03-16T17:45:21.831Z,6.47
2018-03-16T17:47:51.792Z,5.23
2018-03-16T17:50:20.517Z,6.73
2018-03-16T17:52:48.758Z,8.70
2018-03-16T17:55:17.788Z,5.63
2018-03-16T17:57:45.362Z,5.60
2018-03-16T18:00:12.995Z,5.67
2018-03-16T18:02:40.620Z,8.50
2018-03-16T18:05:08.988Z,6.47
2018-03-16T18:07:36.649Z,6.27
2018-03-16T18:10:05.078Z,6.87
2018-03-16T18:12:32.710Z,6.83
2018-03-16T18:15:01.072Z,6.27
2018-03-16T18:17:28.684Z,5.83
2018-03-16T18:19:56.268Z,8.17
2018-03-16T18:22:24.723Z,9.33
2018-03-16T18:24:52.426Z,6.23
2018-03-16T18:27:20.050Z,6.17
2018-03-16T18:29:47.646Z,6.20
2018-03-16T18:32:16.010Z,5.50
2018-03-16T18:34:43.673Z,9.03
2018-03-16T18:37:11.310Z,6.17
2018-03-16T18:39:38.979Z,7.17
2018-03-16T18:42:06.564Z,6.20
2018-03-16T18:44:34.938Z,6.70
2018-03-16T18:47:02.584Z,4.40
2018-03-16T18:49:30.272Z,8.43
2018-03-16T18:51:58.651Z,9.07
2018-03-16T18:54:27.207Z,7.83
2018-03-16T18:56:54.834Z,5.23
2018-03-16T18:59:22.619Z,6.33
2018-03-16T19:01:50.269Z,5.53
2018-03-16T19:04:17.917Z,7.50
2018-03-16T19:06:45.506Z,7.77
2018-03-16T19:09:13.110Z,5.93
2018-03-16T19:11:40.742Z,4.83
2018-03-16T19:14:08.452Z,5.23
2018-03-16T19:16:36.855Z,5.63
2018-03-16T19:19:04.450Z,6.40
2018-03-16T19:21:32.075Z,8.13
2018-03-16T19:23:59.693Z,5.73
2018-03-16T19:26:28.085Z,6.70
2018-03-16T19:28:55.715Z,8.03
2018-03-16T19:31:24.102Z,6.70
2018-03-16T19:33:52.455Z,5.47
2018-03-16T19:36:20.098Z,6.37
2018-03-16T19:38:47.726Z,5.87
2018-03-16T19:41:15.418Z,5.07
2018-03-16T19:43:43.040Z,5.80
2018-03-16T19:46:11.871Z,6.97
2018-03-16T19:48:39.645Z,5.47
2018-03-16T19:51:07.247Z,5.73
2018-03-16T19:53:34.849Z,5.90
2018-03-16T19:56:02.476Z,7.47
2018-03-16T19:58:30.094Z,5.30
2018-03-16T20:00:57.707Z,4.90
2018-03-16T20:03:25.346Z,6.00
2018-03-16T20:05:53.598Z,5.43
2018-03-16T20:08:21.982Z,5.20
2018-03-16T20:10:50.470Z,5.17
2018-03-16T20:13:18.819Z,7.03
2018-03-16T20:15:46.419Z,6.43
2018-03-16T20:18:14.060Z,5.50
2018-03-16T20:20:42.416Z,6.40
2018-03-16T20:23:10.096Z,10.43
2018-03-16T20:25:39.172Z,4.63
2018-03-16T20:28:06.831Z,4.93
2018-03-16T20:30:35.939Z,6.30
2018-03-16T20:33:04.309Z,5.20
2018-03-16T20:35:31.927Z,5.30
2018-03-16T20:37:59.540Z,4.20
2018-03-16T20:40:27.942Z,4.73
2018-03-16T20:42:55.566Z,4.47
2018-03-16T20:45:23.382Z,4.63
2018-03-16T20:47:51.020Z,5.60
2018-03-16T20:50:18.654Z,9.00
2018-03-16T20:52:46.350Z,5.10
2018-03-16T20:55:14.044Z,4.63
2018-03-16T20:57:41.664Z,6.27
2018-03-16T21:00:09.327Z,5.60
2018-03-16T21:02:36.919Z,4.47
2018-03-16T21:05:04.635Z,4.70
2018-03-16T21:07:33.015Z,5.50
2018-03-16T21:10:01.430Z,5.40
2018-03-16T21:12:29.059Z,8.63
2018-03-16T21:14:57.455Z,5.50
2018-03-16T21:17:25.192Z,4.70
2018-03-16T21:19:53.543Z,6.20
2018-03-16T21:22:21.939Z,3.97
2018-03-16T21:24:50.387Z,5.23
2018-03-16T21:27:19.627Z,3.90
2018-03-16T21:29:48.098Z,4.87
2018-03-16T21:32:17.033Z,5.47
2018-03-16T21:34:47.476Z,4.60
2018-03-16T21:37:16.534Z,5.50
2018-03-16T21:39:44.137Z,7.83
2018-03-16T21:42:11.745Z,7.03
2018-03-16T21:44:40.135Z,5.90
2018-03-16T21:47:08.242Z,4.80
2018-03-16T21:49:36.742Z,6.93
2018-03-16T21:52:04.427Z,5.57
2018-03-16T21:54:32.811Z,6.23
2018-03-16T21:57:01.215Z,4.83
2018-03-16T21:59:29.024Z,5.30
2018-03-16T22:01:56.665Z,4.07
2018-03-16T22:04:24.298Z,6.83
2018-03-16T22:06:51.982Z,5.90
2018-03-16T22:09:19.850Z,7.10
2018-03-16T22:11:48.801Z,5.83
2018-03-16T22:14:17.196Z,7.87
2018-03-16T22:16:45.117Z,8.07
2018-03-16T22:19:12.723Z,4.87
2018-03-16T22:21:40.320Z,5.57
2018-03-16T22:24:07.996Z,7.57
2018-03-16T22:26:36.388Z,6.20
2018-03-16T22:29:04.770Z,7.07
2018-03-16T22:31:33.151Z,4.67
2018-03-16T22:34:01.583Z,5.37
2018-03-16T22:36:29.176Z,6.13
2018-03-16T22:38:56.909Z,5.37
2018-03-16T22:41:24.511Z,4.83
2018-03-16T22:43:52.924Z,7.53
2018-03-16T22:46:20.538Z,6.17
2018-03-16T22:48:48.816Z,5.63
2018-03-16T22:51:17.212Z,9.53
2018-03-16T22:53:44.815Z,6.30
2018-03-16T22:56:12.452Z,6.50
2018-03-16T22:58:40.060Z,6.13
2018-03-16T23:01:07.662Z,6.40
2018-03-16T23:03:35.314Z,6.23
2018-03-16T23:06:02.916Z,4.47
2018-03-16T23:08:30.507Z,4.03
2018-03-16T23:10:58.903Z,8.77
2018-03-16T23:13:27.309Z,6.07
2018-03-16T23:15:55.181Z,9.43
2018-03-16T23:18:22.796Z,4.73
2018-03-16T23:20:51.187Z,4.63
2018-03-16T23:23:19.547Z,5.43
2018-03-16T23:25:47.188Z,3.83
2018-03-16T23:28:14.778Z,6.53
2018-03-16T23:30:43.730Z,4.93
2018-03-16T23:33:11.350Z,6.37
2018-03-16T23:35:38.992Z,5.53
2018-03-16T23:38:07.382Z,5.93
2018-03-16T23:40:34.990Z,4.73
2018-03-16T23:43:02.660Z,4.60
2018-03-16T23:45:30.246Z,4.73
2018-03-16T23:47:58.787Z,5.87
2018-03-16T23:50:26.414Z,6.03
2018-03-16T23:52:54.022Z,4.60
2018-03-16T23:55:21.648Z,7.33
2018-03-16T23:57:49.246Z,7.20
